Time;durP1;ratioP1;P1;durP2;ratioP2;P2;SDS_P1;SDS_P2;PMS_P1;PMS_P2;Temp;Humidity;BMP_temperature;BMP_pressure;BME280_temperature;BME280_humidity;BME280_pressure;Samples;Min_cycle;Max_cycle;Signal;HPM_P1;HPM_P2
2021/05/08 00:00:57;;;;;;;15.93;3.50;;;;;;;16.18;69.84;100470.56;5082882;28;20505;-74
2021/05/08 00:04:04;;;;;;;8.75;3.03;;;;;;;16.16;70.23;100473.47;5095335;28;20055;-74
2021/05/08 00:07:08;;;;;;;7.75;2.75;;;;;;;16.09;70.83;100472.44;5095591;28;20043;-74
2021/05/08 00:10:15;;;;;;;12.80;3.40;;;;;;;16.01;71.42;100469.72;5084932;28;20059;-75
2021/05/08 00:13:20;;;;;;;8.30;2.70;;;;;;;16.01;71.35;100467.00;5075566;28;20063;-73
2021/05/08 00:16:25;;;;;;;10.98;3.35;;;;;;;16.00;71.68;100473.44;5095418;28;20043;-74
2021/05/08 00:19:29;;;;;;;12.52;3.05;;;;;;;15.96;71.78;100488.31;5086195;28;20067;-74
2021/05/08 00:22:34;;;;;;;9.90;3.33;;;;;;;15.87;72.68;100489.31;5075249;28;20051;-73
2021/05/08 00:25:38;;;;;;;17.00;3.05;;;;;;;15.78;72.67;100490.28;5084644;28;20067;-73
2021/05/08 00:28:58;;;;;;;9.07;2.92;;;;;;;15.65;73.78;100491.78;5081385;28;20043;-73
2021/05/08 00:32:03;;;;;;;11.35;2.90;;;;;;;15.63;74.80;100497.34;5082743;28;20545;-74
2021/05/08 00:35:07;;;;;;;9.85;2.85;;;;;;;15.63;75.04;100495.50;5075124;28;20051;-77
2021/05/08 00:38:12;;;;;;;14.25;3.53;;;;;;;15.60;74.98;100484.97;5074491;28;20391;-74
2021/05/08 00:41:17;;;;;;;9.00;3.22;;;;;;;15.53;75.72;100496.63;5083598;28;20071;-75
2021/05/08 00:44:21;;;;;;;14.32;3.30;;;;;;;15.59;75.77;100502.25;5084398;28;20506;-75
2021/05/08 00:47:28;;;;;;;11.15;2.50;;;;;;;15.57;75.67;100508.84;5075800;28;20475;-74
2021/05/08 00:50:34;;;;;;;10.90;3.08;;;;;;;15.49;75.80;100517.75;5094305;28;20407;-74
2021/05/08 00:53:39;;;;;;;11.88;2.70;;;;;;;15.37;76.34;100518.16;5073684;28;20051;-75
2021/05/08 00:56:44;;;;;;;10.63;3.22;;;;;;;15.43;76.51;100520.25;5078042;28;20066;-74
2021/05/08 00:59:49;;;;;;;7.20;2.28;;;;;;;15.44;76.09;100530.03;5085175;28;20052;-74
2021/05/08 01:02:54;;;;;;;10.45;2.72;;;;;;;15.39;76.16;100541.34;5072628;28;20055;-74
2021/05/08 01:05:58;;;;;;;9.75;2.95;;;;;;;15.52;75.29;100535.53;5079919;28;20051;-75
2021/05/08 01:09:04;;;;;;;9.23;2.67;;;;;;;15.43;75.58;100544.59;5093655;28;20051;-73
2021/05/08 01:12:09;;;;;;;9.07;2.58;;;;;;;15.43;75.47;100541.88;5080967;28;20075;-74
2021/05/08 01:15:15;;;;;;;9.82;2.85;;;;;;;15.39;76.00;100541.34;5075965;28;20403;-74
2021/05/08 01:18:22;;;;;;;7.43;2.55;;;;;;;15.33;76.42;100546.56;5092993;28;20084;-74
2021/05/08 01:21:26;;;;;;;8.85;3.10;;;;;;;15.40;75.81;100548.47;5091751;28;20066;-73
2021/05/08 01:24:31;;;;;;;14.85;3.05;;;;;;;15.38;75.97;100538.81;5073187;28;20044;-75
2021/05/08 01:27:46;;;;;;;10.07;2.60;;;;;;;15.37;76.40;100546.06;5099327;28;20131;-75
2021/05/08 01:30:51;;;;;;;8.85;2.47;;;;;;;15.38;76.39;100553.16;5093099;28;20047;-75
2021/05/08 01:33:55;;;;;;;8.52;2.80;;;;;;;15.42;76.66;100567.22;5073196;28;20051;-74
2021/05/08 01:37:02;;;;;;;11.05;2.88;;;;;;;15.35;76.96;100572.44;5072757;28;20111;-75
2021/05/08 01:40:13;;;;;;;10.93;2.42;;;;;;;15.44;76.98;100576.88;5072972;28;20044;-74
2021/05/08 01:43:18;;;;;;;8.52;2.92;;;;;;;15.39;76.65;100583.78;5073181;28;20059;-75
2021/05/08 01:46:23;;;;;;;8.95;2.75;;;;;;;15.40;76.82;100589.03;5084338;28;20398;-78
2021/05/08 01:49:28;;;;;;;11.05;2.60;;;;;;;15.35;77.57;100593.22;5093982;28;20155;-74
2021/05/08 01:52:34;;;;;;;11.45;2.05;;;;;;;15.41;77.36;100609.66;5093774;28;20059;-75
2021/05/08 01:55:39;;;;;;;10.50;2.80;;;;;;;15.38;77.12;100614.56;5077931;28;20047;-74
2021/05/08 01:58:51;;;;;;;9.70;3.10;;;;;;;15.37;77.89;100612.84;5096729;28;20051;-77
2021/05/08 02:01:57;;;;;;;12.50;3.78;;;;;;;15.35;77.59;100617.56;5082250;28;20285;-75
2021/05/08 02:05:04;;;;;;;13.45;4.10;;;;;;;15.38;78.31;100614.56;5073525;28;20068;-77
2021/05/08 02:08:11;;;;;;;13.07;3.65;;;;;;;15.39;79.17;100608.97;5073090;28;20051;-77
2021/05/08 02:11:16;;;;;;;15.90;4.22;;;;;;;15.39;79.83;100602.72;5073423;28;20056;-73
2021/05/08 02:14:20;;;;;;;19.73;4.15;;;;;;;15.41;81.13;100611.50;5091087;28;20466;-74
2021/05/08 02:17:27;;;;;;;12.63;4.65;;;;;;;15.40;81.96;100621.50;5095817;28;20514;-75
2021/05/08 02:20:39;;;;;;;18.52;5.28;;;;;;;15.40;81.79;100637.72;5080033;28;20395;-75
2021/05/08 02:23:44;;;;;;;19.27;4.90;;;;;;;15.38;82.94;100638.91;5073304;28;20043;-74
2021/05/08 02:26:48;;;;;;;18.90;4.75;;;;;;;15.42;83.06;100624.88;5089567;28;20047;-75
2021/05/08 02:29:53;;;;;;;12.50;4.35;;;;;;;15.49;83.07;100633.25;5085357;28;20147;-73
2021/05/08 02:32:59;;;;;;;19.10;5.60;;;;;;;15.40;83.68;100626.06;5073251;28;20482;-74
2021/05/08 02:36:04;;;;;;;14.93;5.00;;;;;;;15.33;84.48;100635.81;5080589;28;20040;-73
2021/05/08 02:39:09;;;;;;;18.67;4.18;;;;;;;15.38;83.79;100644.31;5082946;28;20063;-73
2021/05/08 02:42:15;;;;;;;22.30;4.43;;;;;;;15.35;84.42;100641.91;5085528;28;20506;-74
2021/05/08 02:45:20;;;;;;;22.77;3.25;;;;;;;15.23;83.24;100657.56;5093372;28;20387;-73
2021/05/08 02:48:24;;;;;;;20.20;3.20;;;;;;;15.21;82.71;100659.53;5077212;28;20052;-73
2021/05/08 02:51:33;;;;;;;20.27;3.10;;;;;;;15.20;81.06;100668.69;5072306;28;20060;-73
2021/05/08 02:54:37;;;;;;;17.08;3.28;;;;;;;15.14;80.25;100669.28;5083744;28;20048;-73
2021/05/08 02:57:42;;;;;;;14.63;3.00;;;;;;;15.18;79.20;100677.94;5106297;28;20055;-74
2021/05/08 03:00:47;;;;;;;16.35;2.78;;;;;;;15.03;79.31;100672.25;5075912;28;20067;-73
2021/05/08 03:03:52;;;;;;;14.15;2.70;;;;;;;15.10;78.47;100683.28;5076250;28;20051;-73
2021/05/08 03:06:57;;;;;;;13.88;2.53;;;;;;;15.11;79.04;100682.28;5082552;28;20056;-73
2021/05/08 03:10:02;;;;;;;17.33;2.85;;;;;;;15.12;79.18;100684.81;5091298;28;20051;-73
2021/05/08 03:13:07;;;;;;;16.50;3.53;;;;;;;15.10;80.43;100684.13;5084421;28;20051;-73
2021/05/08 03:16:13;;;;;;;14.32;2.70;;;;;;;14.94;81.52;100694.78;5086782;28;20055;-73
2021/05/08 03:19:19;;;;;;;10.02;2.70;;;;;;;15.15;80.58;100691.78;5094701;28;20055;-74
2021/05/08 03:22:25;;;;;;;18.55;3.15;;;;;;;15.05;80.43;100691.00;5093125;28;20051;-74
2021/05/08 03:25:30;;;;;;;14.02;2.58;;;;;;;14.93;80.01;100701.22;5086987;28;20379;-74
2021/05/08 03:28:34;;;;;;;12.80;2.45;;;;;;;14.93;79.94;100703.91;5087957;28;20055;-73
2021/05/08 03:31:38;;;;;;;14.57;2.33;;;;;;;14.86;79.73;100716.34;5096188;28;20498;-75
2021/05/08 03:34:43;;;;;;;14.45;2.53;;;;;;;14.85;79.10;100715.50;5089496;28;20051;-75
2021/05/08 03:37:51;;;;;;;12.30;2.22;;;;;;;14.92;78.44;100715.72;5084034;28;20521;-76
2021/05/08 03:40:55;;;;;;;11.57;2.38;;;;;;;14.81;79.15;100722.19;5079704;28;20775;-75
2021/05/08 03:43:59;;;;;;;9.50;2.30;;;;;;;14.75;80.69;100730.91;5095174;28;20047;-75
2021/05/08 03:47:03;;;;;;;12.35;2.42;;;;;;;14.66;81.31;100731.00;5086939;28;20047;-74
2021/05/08 03:50:08;;;;;;;10.93;2.53;;;;;;;14.66;81.57;100741.78;5075641;28;20044;-74
2021/05/08 03:53:12;;;;;;;9.80;2.50;;;;;;;14.65;81.62;100751.75;5085608;28;20051;-75
2021/05/08 03:56:17;;;;;;;12.30;2.60;;;;;;;14.57;81.88;100757.03;5096039;28;20059;-76
2021/05/08 03:59:21;;;;;;;9.90;2.20;;;;;;;14.64;81.16;100766.25;5093918;28;20043;-74
2021/05/08 04:02:26;;;;;;;7.80;2.30;;;;;;;14.73;81.22;100759.94;5074847;28;20506;-75
2021/05/08 04:05:30;;;;;;;13.10;2.42;;;;;;;14.66;80.84;100771.50;5089938;28;20055;-74
2021/05/08 04:08:35;;;;;;;12.52;3.47;;;;;;;14.60;80.99;100767.56;5095008;28;20067;-74
2021/05/08 04:11:39;;;;;;;12.40;2.65;;;;;;;14.55;80.79;100777.09;5095603;28;20054;-75
2021/05/08 04:14:43;;;;;;;12.50;2.10;;;;;;;14.54;80.50;100784.34;5095387;28;20051;-74
2021/05/08 04:17:47;;;;;;;11.05;2.33;;;;;;;14.54;80.73;100783.53;5095303;28;20042;-75
2021/05/08 04:20:52;;;;;;;8.57;2.33;;;;;;;14.50;80.31;100782.97;5095008;28;20050;-75
2021/05/08 04:23:56;;;;;;;7.97;2.08;;;;;;;14.55;80.14;100790.59;5095209;28;20375;-76
2021/05/08 04:27:00;;;;;;;9.93;2.33;;;;;;;14.52;79.34;100790.91;5095034;28;20051;-75
2021/05/08 04:30:06;;;;;;;7.80;1.90;;;;;;;14.57;78.81;100808.38;5095416;28;20059;-74
2021/05/08 04:33:10;;;;;;;6.78;1.73;;;;;;;14.49;78.73;100802.03;5095119;28;20071;-75
2021/05/08 04:36:15;;;;;;;6.90;1.75;;;;;;;14.26;78.76;100796.09;5095151;28;20052;-74
2021/05/08 04:39:19;;;;;;;6.53;2.30;;;;;;;14.22;78.98;100808.22;5094184;28;20059;-75
2021/05/08 04:42:23;;;;;;;7.78;1.80;;;;;;;14.28;78.76;100803.06;5094289;28;20059;-74
2021/05/08 04:45:28;;;;;;;11.88;2.40;;;;;;;14.17;78.74;100816.72;5094633;28;20047;-74
2021/05/08 04:48:33;;;;;;;8.00;2.15;;;;;;;14.08;78.86;100816.75;5094063;28;20047;-74
2021/05/08 04:51:38;;;;;;;8.07;1.90;;;;;;;14.05;79.55;100817.03;5093706;28;20043;-73
2021/05/08 04:54:42;;;;;;;8.57;2.38;;;;;;;13.99;78.37;100823.03;5094075;28;20067;-74
2021/05/08 04:57:46;;;;;;;7.95;2.28;;;;;;;13.93;78.24;100835.25;5094358;28;20055;-73
2021/05/08 05:00:51;;;;;;;6.38;1.70;;;;;;;13.87;78.17;100838.53;5093947;28;20047;-75
2021/05/08 05:03:56;;;;;;;7.22;2.20;;;;;;;13.81;76.85;100847.19;5093941;28;20050;-75
2021/05/08 05:07:00;;;;;;;7.82;1.80;;;;;;;13.69;77.29;100851.03;5093747;28;20141;-74
2021/05/08 05:10:05;;;;;;;4.78;1.60;;;;;;;13.65;77.25;100841.53;5094026;28;20395;-75
2021/05/08 05:13:09;;;;;;;6.57;1.70;;;;;;;13.69;76.91;100848.34;5092953;28;20051;-74
2021/05/08 05:16:14;;;;;;;7.13;1.90;;;;;;;13.69;76.71;100851.03;5093879;28;20526;-74
2021/05/08 05:19:19;;;;;;;6.65;1.92;;;;;;;13.68;76.24;100852.88;5092157;28;20055;-73
2021/05/08 05:22:24;;;;;;;5.25;2.10;;;;;;;13.79;76.37;100869.94;5093498;28;20059;-74
2021/05/08 05:25:28;;;;;;;3.90;1.48;;;;;;;13.70;76.55;100875.16;5093379;28;20047;-74
2021/05/08 05:28:32;;;;;;;8.02;1.33;;;;;;;13.75;75.83;100876.63;5093768;28;20051;-74
2021/05/08 05:31:38;;;;;;;5.03;1.50;;;;;;;13.67;75.99;100878.19;5093252;28;20192;-74
2021/05/08 05:34:42;;;;;;;5.03;1.55;;;;;;;13.72;75.78;100876.88;5092094;28;20051;-74
2021/05/08 05:37:46;;;;;;;7.55;1.98;;;;;;;13.73;76.09;100884.81;5092979;28;20391;-75
2021/05/08 05:40:54;;;;;;;5.03;1.33;;;;;;;13.80;75.43;100890.53;5093065;28;20051;-74
2021/05/08 05:44:01;;;;;;;6.18;1.63;;;;;;;13.83;74.90;100896.47;5093014;28;20051;-75
2021/05/08 05:47:20;;;;;;;5.43;1.70;;;;;;;13.81;74.92;100898.47;5093074;28;20444;-74
2021/05/08 05:50:25;;;;;;;5.18;1.80;;;;;;;13.83;74.95;100898.31;5094054;28;20055;-73
2021/05/08 05:53:29;;;;;;;8.25;1.63;;;;;;;13.87;74.82;100897.91;5094148;28;20118;-74
2021/05/08 05:56:33;;;;;;;5.63;1.38;;;;;;;13.90;74.58;100908.41;5093918;28;20055;-74
2021/05/08 05:59:38;;;;;;;3.13;1.17;;;;;;;13.83;74.70;100909.97;5092705;28;20051;-78
2021/05/08 06:02:44;;;;;;;5.30;1.10;;;;;;;13.78;74.67;100920.34;5093786;28;20074;-78
2021/05/08 06:05:47;;;;;;;4.55;1.30;;;;;;;13.84;73.72;100918.94;5092666;28;20059;-75
2021/05/08 06:08:52;;;;;;;9.30;1.40;;;;;;;13.89;73.51;100930.16;5092108;28;20499;-74
2021/05/08 06:11:58;;;;;;;8.30;1.77;;;;;;;13.93;73.24;100929.72;5088454;28;20059;-74
2021/05/08 06:15:07;;;;;;;5.82;1.70;;;;;;;14.05;72.70;100939.38;5093831;28;20071;-73
2021/05/08 06:18:11;;;;;;;8.15;1.75;;;;;;;14.06;72.73;100934.84;5093776;28;20043;-77
2021/05/08 06:21:16;;;;;;;4.78;1.20;;;;;;;14.09;72.72;100939.94;5093651;28;20063;-76
2021/05/08 06:24:20;;;;;;;5.50;1.50;;;;;;;14.13;72.79;100944.91;5092697;28;20055;-74
2021/05/08 06:27:25;;;;;;;8.25;1.52;;;;;;;14.17;72.31;100940.94;5091975;28;20502;-75
2021/05/08 06:30:29;;;;;;;6.55;1.45;;;;;;;14.20;72.18;100950.59;5091981;28;20055;-77
2021/05/08 06:33:34;;;;;;;6.30;1.35;;;;;;;14.32;71.82;100955.72;5098163;28;20051;-79
2021/05/08 06:36:38;;;;;;;3.10;1.20;;;;;;;14.43;71.86;100965.53;5110532;28;20043;-77
2021/05/08 06:39:43;;;;;;;5.18;1.58;;;;;;;14.50;72.82;100961.25;5088772;28;20043;-76
2021/05/08 06:42:47;;;;;;;6.00;1.30;;;;;;;14.68;72.48;100959.50;5095998;28;20047;-74
2021/05/08 06:45:51;;;;;;;3.60;1.38;;;;;;;14.98;71.53;100959.28;5095169;28;20051;-73
2021/05/08 06:48:56;;;;;;;4.97;1.35;;;;;;;15.12;70.47;100967.88;5096952;28;20390;-75
2021/05/08 06:52:01;;;;;;;4.97;1.75;;;;;;;15.26;69.81;100970.94;5093484;28;20047;-73
2021/05/08 06:55:06;;;;;;;6.35;1.65;;;;;;;14.88;70.36;100973.81;5096148;28;20063;-74
2021/05/08 06:58:11;;;;;;;9.80;4.53;;;;;;;15.14;69.98;100971.28;5086819;28;20047;-77
2021/05/08 07:01:15;;;;;;;9.82;6.88;;;;;;;15.26;69.57;100972.78;5085232;28;20055;-76
2021/05/08 07:04:20;;;;;;;5.03;1.77;;;;;;;15.47;69.36;100981.56;5086379;28;20055;-77
2021/05/08 07:07:25;;;;;;;4.38;1.27;;;;;;;15.53;67.74;100979.09;5089595;28;20402;-78
2021/05/08 07:10:29;;;;;;;5.90;1.40;;;;;;;15.51;67.62;100982.97;5089630;28;20051;-77
2021/05/08 07:13:34;;;;;;;7.30;1.40;;;;;;;15.51;68.00;100978.41;5096116;28;20047;-77
2021/05/08 07:16:38;;;;;;;5.82;1.40;;;;;;;15.54;68.47;100985.38;5095877;28;20043;-77
2021/05/08 07:19:42;;;;;;;7.05;1.30;;;;;;;15.49;67.44;100977.72;5095720;28;20047;-76
2021/05/08 07:22:47;;;;;;;7.63;1.52;;;;;;;15.56;66.74;100991.47;5095736;28;20055;-79
2021/05/08 07:25:51;;;;;;;5.43;1.05;;;;;;;15.60;65.38;100992.91;5096007;28;20051;-78
2021/05/08 07:28:56;;;;;;;5.13;1.30;;;;;;;15.54;65.23;101004.31;5094543;28;20055;-76
2021/05/08 07:32:00;;;;;;;5.45;1.25;;;;;;;15.46;64.98;100996.09;5095868;28;20051;-79
2021/05/08 07:35:08;;;;;;;7.50;1.27;;;;;;;15.47;65.04;101001.38;5096022;28;20075;-81
2021/05/08 07:38:14;;;;;;;13.77;3.42;;;;;;;15.28;65.66;101004.09;5091657;28;20047;-74
2021/05/08 07:41:18;;;;;;;7.05;1.23;;;;;;;15.39;65.23;101003.94;5093863;28;20490;-76
2021/05/08 07:44:23;;;;;;;7.95;1.77;;;;;;;15.56;65.67;101007.72;5086865;28;20047;-79
2021/05/08 07:47:27;;;;;;;9.77;1.40;;;;;;;15.69;65.18;101004.66;5095265;28;20051;-80
2021/05/08 07:50:32;;;;;;;6.53;1.60;;;;;;;15.67;64.45;101015.66;5094348;28;20055;-76
2021/05/08 07:53:36;;;;;;;7.38;1.40;;;;;;;15.59;64.66;101015.53;5089212;28;20048;-77
2021/05/08 07:56:41;;;;;;;6.10;1.45;;;;;;;15.41;65.30;101010.03;5088818;28;20056;-79
2021/05/08 07:59:45;;;;;;;7.40;1.60;;;;;;;15.42;65.29;101011.75;5095717;28;20055;-79
2021/05/08 08:02:34;;;;;;;36.47;23.65;;;;;;;15.63;65.31;101022.34;5094002;28;20044;-79
2021/05/08 08:05:38;;;;;;;10.98;3.45;;;;;;;15.73;64.47;101016.88;5092948;28;20040;-75
2021/05/08 08:08:42;;;;;;;9.57;1.65;;;;;;;15.82;65.12;101013.28;5083161;28;20071;-75
2021/05/08 08:11:47;;;;;;;10.38;2.38;;;;;;;15.83;64.95;101029.34;5094497;28;20047;-75
2021/05/08 08:14:52;;;;;;;8.75;1.70;;;;;;;15.77;64.80;101032.69;5095728;28;20067;-75
2021/05/08 08:17:56;;;;;;;8.90;2.00;;;;;;;15.59;65.62;101037.19;5093109;28;20497;-73
2021/05/08 08:21:01;;;;;;;9.52;1.70;;;;;;;15.65;66.56;101047.44;5093030;28;20051;-76
2021/05/08 08:24:06;;;;;;;9.98;2.08;;;;;;;15.78;65.70;101042.50;5095243;28;20070;-78
2021/05/08 08:27:11;;;;;;;10.30;1.50;;;;;;;15.87;65.50;101047.03;5095343;28;20126;-78
2021/05/08 08:30:16;;;;;;;11.38;1.85;;;;;;;15.96;65.82;101056.94;5094448;28;20051;-72
2021/05/08 08:33:21;;;;;;;11.77;1.90;;;;;;;15.96;65.28;101056.06;5095194;28;20047;-75
2021/05/08 08:36:25;;;;;;;9.88;2.13;;;;;;;16.01;65.19;101051.91;5095217;28;20051;-78
2021/05/08 08:39:30;;;;;;;10.82;2.10;;;;;;;15.93;65.37;101057.22;5095080;28;20493;-78
2021/05/08 08:42:37;;;;;;;7.40;2.05;;;;;;;15.96;65.31;101051.50;5093460;28;20133;-76
2021/05/08 08:45:42;;;;;;;13.45;2.33;;;;;;;16.10;64.59;101064.53;5092804;28;20048;-78
2021/05/08 08:48:48;;;;;;;15.55;2.40;;;;;;;15.97;65.30;101061.31;5091386;28;20047;-79
2021/05/08 08:51:52;;;;;;;9.18;1.90;;;;;;;16.17;65.65;101071.03;5090730;28;20043;-76
2021/05/08 08:54:58;;;;;;;9.43;2.08;;;;;;;16.25;65.35;101071.13;5093557;28;20157;-74
2021/05/08 08:58:06;;;;;;;11.90;2.28;;;;;;;16.25;65.36;101081.97;5092702;28;20517;-79
2021/05/08 09:01:11;;;;;;;8.02;2.38;;;;;;;16.15;65.57;101072.19;5093439;28;20494;-75
2021/05/08 09:04:16;;;;;;;13.70;2.47;;;;;;;16.35;64.82;101072.91;5091937;28;20126;-79
2021/05/08 09:07:25;;;;;;;9.77;2.20;;;;;;;16.63;64.84;101063.72;5092653;28;20039;-79
2021/05/08 09:10:31;;;;;;;7.97;2.15;;;;;;;16.60;64.34;101064.88;5093491;28;20047;-75
2021/05/08 09:13:35;;;;;;;24.45;15.77;;;;;;;16.78;64.11;101070.28;5093422;28;20047;-78
2021/05/08 09:16:39;;;;;;;19.30;6.72;;;;;;;17.02;63.24;101065.06;5094420;28;20036;-73
2021/05/08 09:19:56;;;;;;;7.63;3.38;;;;;;;17.21;62.38;101072.13;5094423;28;20469;-79
2021/05/08 09:23:01;;;;;;;12.35;2.60;;;;;;;16.77;63.40;101074.84;5094240;28;20063;-79
2021/05/08 09:26:07;;;;;;;10.57;2.85;;;;;;;17.03;63.07;101084.91;5093541;28;20122;-73
2021/05/08 09:29:18;;;;;;;10.88;2.67;;;;;;;17.07;62.83;101084.41;5094028;28;20055;-74
2021/05/08 09:32:23;;;;;;;9.07;2.83;;;;;;;17.11;62.47;101082.25;5094199;28;20482;-79
2021/05/08 09:35:33;;;;;;;11.95;3.42;;;;;;;17.21;62.52;101074.84;5093200;28;20071;-79
2021/05/08 09:38:43;;;;;;;8.82;2.25;;;;;;;16.99;62.86;101078.91;5094183;28;20047;-79
2021/05/08 09:41:47;;;;;;;10.43;2.35;;;;;;;17.09;63.54;101090.53;5093380;28;20059;-79
2021/05/08 09:44:58;;;;;;;12.45;3.25;;;;;;;17.11;64.15;101085.78;5093775;28;20047;-74
2021/05/08 09:48:17;;;;;;;10.60;3.40;;;;;;;17.12;64.45;101082.06;5094021;28;20149;-80
2021/05/08 09:51:26;;;;;;;11.57;3.60;;;;;;;17.02;65.38;101085.91;5094016;28;20047;-79
2021/05/08 09:54:30;;;;;;;14.50;3.97;;;;;;;17.01;65.82;101093.16;5093911;28;20071;-74
2021/05/08 09:57:35;;;;;;;14.10;5.32;;;;;;;16.96;66.09;101098.22;5093944;28;20055;-75
2021/05/08 10:00:41;;;;;;;11.13;4.60;;;;;;;17.00;65.83;101107.75;5093151;28;20047;-74
2021/05/08 10:03:46;;;;;;;17.40;4.15;;;;;;;17.16;65.44;101102.44;5093829;28;20059;-80
2021/05/08 10:07:13;;;;;;;16.25;3.97;;;;;;;16.77;65.24;101098.41;5098320;28;20379;-74
2021/05/08 10:10:19;;;;;;;16.65;4.30;;;;;;;16.58;66.84;101101.28;5097892;28;20043;-75
2021/05/08 10:13:26;;;;;;;19.42;3.58;;;;;;;16.61;67.09;101100.97;5097912;28;20102;-73
2021/05/08 10:16:31;;;;;;;10.80;3.55;;;;;;;16.78;67.26;101097.41;5097879;28;20494;-80
2021/05/08 10:19:38;;;;;;;8.85;2.92;;;;;;;17.10;66.22;101096.81;5097847;28;20047;-75
2021/05/08 10:22:57;;;;;;;14.55;3.30;;;;;;;17.15;65.26;101092.63;5097732;28;20501;-74
2021/05/08 10:26:03;;;;;;;14.85;4.72;;;;;;;17.33;65.41;101084.44;5097692;28;20383;-81
2021/05/08 10:29:07;;;;;;;15.25;4.80;;;;;;;17.49;64.57;101079.94;5096788;28;20485;-78
2021/05/08 10:32:15;;;;;;;14.63;6.82;;;;;;;17.63;64.16;101075.78;5097934;28;20051;-75
2021/05/08 10:35:26;;;;;;;17.08;5.82;;;;;;;17.96;62.71;101074.06;5097345;28;20043;-74
2021/05/08 10:38:34;;;;;;;13.95;4.82;;;;;;;18.33;61.48;101074.50;5097199;28;20051;-78
2021/05/08 10:41:51;;;;;;;11.60;4.28;;;;;;;18.72;60.25;101059.28;5096006;28;20051;-80
2021/05/08 10:44:56;;;;;;;12.82;6.43;;;;;;;18.87;59.65;101064.88;5096473;28;20051;-80
2021/05/08 10:48:03;;;;;;;14.45;5.97;;;;;;;19.10;59.16;101059.59;5097262;28;20055;-79
2021/05/08 10:51:08;;;;;;;18.98;11.80;;;;;;;19.06;58.57;101066.41;5097196;28;20047;-75
2021/05/08 10:54:44;;;;;;;62.92;45.92;;;;;;;19.33;58.37;101052.41;5097281;28;20040;-76
2021/05/08 10:58:14;;;;;;;16.85;6.18;;;;;;;19.35;57.67;101058.53;5096353;28;20036;-73
2021/05/08 11:01:38;;;;;;;13.15;5.13;;;;;;;19.04;58.53;101052.09;5096951;28;20043;-75
2021/05/08 11:05:19;;;;;;;12.48;4.90;;;;;;;18.59;60.07;101058.09;5097068;28;20070;-79
2021/05/08 11:08:28;;;;;;;14.98;4.30;;;;;;;18.53;60.38;101058.75;5096897;28;20067;-74
2021/05/08 11:11:48;;;;;;;9.65;4.13;;;;;;;18.65;60.32;101049.25;5096058;28;20390;-79
2021/05/08 11:14:55;;;;;;;10.30;3.75;;;;;;;18.80;60.11;101042.13;5096882;28;20494;-80
2021/05/08 11:18:02;;;;;;;13.77;3.90;;;;;;;18.55;60.28;101059.44;5096485;28;20059;-78
2021/05/08 11:21:18;;;;;;;11.77;4.40;;;;;;;18.74;59.60;101042.78;5096617;28;20056;-76
2021/05/08 11:24:37;;;;;;;11.80;4.22;;;;;;;18.75;59.76;101039.06;5096541;28;20071;-80
2021/05/08 11:27:42;;;;;;;12.82;4.47;;;;;;;18.33;60.10;101046.47;5096486;28;20509;-74
2021/05/08 11:30:53;;;;;;;8.05;3.67;;;;;;;18.33;60.57;101044.59;5096371;28;20051;-74
2021/05/08 11:34:24;;;;;;;12.50;3.83;;;;;;;18.65;59.62;101039.22;5096281;28;20047;-79
2021/05/08 11:37:28;;;;;;;15.93;4.25;;;;;;;18.67;59.69;101030.88;5096402;28;20047;-79
2021/05/08 11:40:33;;;;;;;10.13;3.40;;;;;;;18.78;59.58;101031.41;5086551;28;20059;-74
2021/05/08 11:43:38;;;;;;;16.35;4.43;;;;;;;18.92;59.79;101034.44;5083771;28;20052;-74
2021/05/08 11:46:54;;;;;;;11.05;3.55;;;;;;;18.95;59.67;101029.53;5083603;28;20055;-75
2021/05/08 11:50:04;;;;;;;10.82;3.90;;;;;;;18.94;59.74;101022.38;5079861;28;20510;-75
2021/05/08 11:53:18;;;;;;;11.20;3.05;;;;;;;19.26;59.77;101025.03;5094190;28;20407;-75
2021/05/08 11:56:33;;;;;;;7.25;2.92;;;;;;;19.57;58.42;101022.41;5087666;28;20051;-73
2021/05/08 11:59:37;;;;;;;10.48;3.20;;;;;;;19.63;56.89;101012.69;5086870;28;20051;-75
2021/05/08 12:02:42;;;;;;;11.93;3.53;;;;;;;19.51;57.30;101014.94;5075214;28;20067;-76
2021/05/08 12:05:48;;;;;;;10.25;3.03;;;;;;;19.88;56.50;101004.19;5074437;28;20384;-77
2021/05/08 12:08:55;;;;;;;15.63;3.78;;;;;;;19.89;56.25;100999.59;5075447;28;20060;-75
2021/05/08 12:12:02;;;;;;;10.10;3.20;;;;;;;20.16;56.16;100999.09;5089537;28;20399;-77
2021/05/08 12:15:07;;;;;;;9.00;2.72;;;;;;;20.22;55.92;100998.34;5090101;28;20052;-77
2021/05/08 12:18:13;;;;;;;9.63;3.40;;;;;;;20.26;55.65;100999.75;5077032;28;20502;-76
2021/05/08 12:21:17;;;;;;;7.93;2.65;;;;;;;19.85;56.64;100995.56;5092783;28;20402;-75
2021/05/08 12:24:22;;;;;;;10.02;3.67;;;;;;;19.70;56.15;100986.44;5094676;28;20497;-78
2021/05/08 12:27:27;;;;;;;8.27;3.17;;;;;;;19.94;56.81;100987.16;5095165;28;20055;-78
2021/05/08 12:30:32;;;;;;;10.52;3.63;;;;;;;19.74;56.95;100990.50;5095211;28;20051;-78
2021/05/08 12:33:37;;;;;;;8.63;3.72;;;;;;;19.80;56.40;100987.06;5093074;28;20071;-80
2021/05/08 12:36:58;;;;;;;9.65;4.10;;;;;;;19.56;57.32;100985.28;5094078;28;20043;-80
2021/05/08 12:40:03;;;;;;;12.40;5.00;;;;;;;19.76;57.02;100972.94;5088667;28;20043;-79
2021/05/08 12:43:07;;;;;;;12.60;4.80;;;;;;;19.89;57.03;100984.13;5089540;28;20517;-75
2021/05/08 12:46:12;;;;;;;19.17;10.93;;;;;;;19.52;57.17;100978.53;5094487;28;20059;-78
2021/05/08 12:49:19;;;;;;;12.90;7.03;;;;;;;19.54;57.03;100970.16;5093559;28;20463;-77
2021/05/08 12:52:24;;;;;;;7.20;3.83;;;;;;;19.57;57.18;100965.22;5095114;28;20055;-80
2021/05/08 12:55:32;;;;;;;14.70;4.00;;;;;;;19.98;55.60;100957.66;5091147;28;20054;-74
2021/05/08 12:58:38;;;;;;;9.70;3.90;;;;;;;19.95;56.21;100953.41;5094748;28;20494;-74
2021/05/08 13:01:44;;;;;;;13.73;3.60;;;;;;;20.12;55.97;100949.53;5084117;28;20502;-74
2021/05/08 13:04:52;;;;;;;11.05;4.00;;;;;;;20.11;55.47;100942.41;5087498;28;20118;-74
2021/05/08 13:08:01;;;;;;;7.70;3.58;;;;;;;19.88;56.79;100935.22;5094305;28;20063;-79
2021/05/08 13:11:05;;;;;;;13.02;4.90;;;;;;;19.79;56.49;100937.16;5094782;28;20055;-75
2021/05/08 13:14:21;;;;;;;7.90;4.00;;;;;;;19.50;58.30;100941.59;5094403;28;20059;-75
2021/05/08 13:17:26;;;;;;;9.15;3.90;;;;;;;19.35;58.41;100928.72;5092571;28;20059;-78
2021/05/08 13:20:34;;;;;;;8.68;3.83;;;;;;;19.35;58.52;100925.97;5084903;28;20505;-78
2021/05/08 13:23:38;;;;;;;13.27;4.35;;;;;;;19.24;58.51;100917.34;5094256;28;20047;-77
2021/05/08 13:26:42;;;;;;;10.13;4.38;;;;;;;19.48;57.55;100901.75;5093612;28;20482;-80
2021/05/08 13:29:47;;;;;;;10.77;4.63;;;;;;;19.57;57.27;100894.41;5093255;28;20039;-76
2021/05/08 13:32:53;;;;;;;10.73;4.53;;;;;;;19.60;56.47;100887.75;5094053;28;20047;-77
2021/05/08 13:35:57;;;;;;;10.32;5.13;;;;;;;19.64;56.60;100894.53;5085770;28;20043;-77
2021/05/08 13:39:04;;;;;;;12.57;5.00;;;;;;;19.42;57.49;100875.25;5093645;28;20067;-74
2021/05/08 13:42:08;;;;;;;12.02;5.22;;;;;;;19.20;57.38;100880.63;5076333;28;20507;-75
2021/05/08 13:45:14;;;;;;;10.02;5.55;;;;;;;19.05;58.59;100876.94;5073870;28;20051;-74
2021/05/08 13:48:18;;;;;;;14.90;5.90;;;;;;;19.10;58.88;100882.69;5077407;28;20071;-78
2021/05/08 13:51:23;;;;;;;12.32;6.22;;;;;;;19.11;58.88;100877.06;5093197;28;20066;-76
2021/05/08 13:54:27;;;;;;;11.38;6.30;;;;;;;19.26;58.19;100875.31;5091758;28;20063;-76
2021/05/08 13:57:33;;;;;;;13.98;4.88;;;;;;;19.57;58.02;100861.72;5089970;28;20110;-81
2021/05/08 14:00:37;;;;;;;14.32;5.60;;;;;;;19.79;57.68;100860.03;5083028;28;20043;-80
2021/05/08 14:03:42;;;;;;;10.15;4.93;;;;;;;19.75;57.07;100854.09;5091564;28;20059;-81
2021/05/08 14:06:49;;;;;;;13.88;5.20;;;;;;;19.70;57.87;100861.13;5090898;28;20509;-82
2021/05/08 14:09:54;;;;;;;17.58;5.80;;;;;;;19.45;57.68;100868.63;5085148;28;20047;-77
2021/05/08 14:12:58;;;;;;;13.07;5.82;;;;;;;19.53;57.75;100867.72;5090411;28;20509;-82
2021/05/08 14:16:03;;;;;;;11.38;5.47;;;;;;;19.71;57.53;100865.53;5091168;28;20051;-80
2021/05/08 14:19:13;;;;;;;18.05;6.45;;;;;;;19.83;57.37;100867.66;5090879;28;20407;-79
2021/05/08 14:22:18;;;;;;;13.50;5.68;;;;;;;20.01;56.67;100868.19;5093663;28;20375;-80